Nowy 30-godzinny format TAF

TAF (Terminal Aerodrome Forcast)
Od 5 listopada 2008 roku zgodnie z poprawką 74 (Amendment 74) do Aneksu 3 ICAO, obowiązuje nowy, 30 godzinny format depeszy TAF (Terminal Aerodrome Forcast). Zmianie uległy: ważność depeszy TAF oraz format kodowania czasu. W istocie zmiana wymogła dołączenie dnia miesiąca do grupy godzin aby usunąć potencjalne niejasności.

Format TAF przed 5 listopada 2008

TAF VTBS 050330Z 050606 06010KT 9999 SCT025 BKN300
BECMG 0810 08008KT FEW018CB SCT120 BKN300
TEMPO 1015 10015KT 5000 TSRA FEW018CB SCT035 BKN120
BECMG 1618 04005KT FEW020 SCT120 BKN300
BECMG 0103 06010KT FEW020 SCT035 BKN300=

TAF został przygotowany 05 dnia miesiąca o godzinie 0330UTC i obowiązuje od 05-tego dnia miesiąca od godziny 06 do godziny 0600UTC 06-tego dnia miesiąca.

Pierwsza grupa BECMG prognozuje od 0800UTC do 1000UTC
Grupa TEMPO prognozuje od 1000UTC  do 1500UTC
Druga grupa BECMG w przedziale od 1600UTC 1800UTC
Trzecia grupa BECMG to zakres 0100UTC 0300UTC w 06-tym dniu miesiąca.

Format depeszy TAF po 5 lisotpada 2008:

TAF VTBS 050330Z 0506/0606 06010KT 9999 SCT025 BKN300
BECMG 0508/0510 08008KT FEW018CB SCT120 BKN300
TEMPO 0510/0515 10015KT 5000 TSRA FEW018CB SCT035 BKN120
BECMG 0516/0518 04005KT FEW020 SCT120 BKN300
BECMG 0601/0603 06010KT FEW020 SCT035 BKN300=

TAF zoatał przygotowany 05 dnia miesiąca o godzinie 0330UTC i obowiązuje od 0600UTC 05-tego dnia miesiąca do 0600UTC 06-tego dnia miesiąca.

Pierwsza grupa BECMG prognozuje od 0800UTC 05-tego dnia miesiąca do 1000UTC 05-tego dnia miesiąca
Grupa TEMPO to zakres od 1000UTC 05-tego dnia miesiąca do 1500UTC 05-tego dnia miesiąca.
Druga grupa BECMG to zakres od 1600UTC 05 dnia miesiąca do 1800UTC 05-tego dnia miesiąca
Trzecia grupa BECMG to zakres 0100UTC 06-tego dnia miesiąca do 0300UTC do 06-tego dnia miesiąca.

Analogiczna zmiana dotyczy również 9-godzinnych depesz TAF:

Format TAF przed 5 listopada 2008:

TAF VTBS 050200Z 050312 12010KT 9999 FEW020 BKN120 BKN300
TEMPO 0610 6000 RA FEW018CB SCT030 BKN120=

Format TAF po 5 listopada 2008:

TAF VTBS 050200Z 0503/0512 08010KT 9999 SCT020 SCT035 BKN300
TEMPO 0506/0510 08015KT 5000 TSRA FEW018CB SCT030 BKN110=

W nowym formacie czas 05-tego dnia miesiąca pomiędzy 0300UTC 1200UTC został zapisany w formacie: 0503/0512

Zmiana naturalnie wymusi odpowiednie korekty oprogramowania "tłumaczącego" formaty depesz meteorologicznych na co polecamy zwrócić uwagę podczas korzystania z serwisów pogodowych.

Tabela A5-1 Aneksu 3, - Meteorological Service for International Air Navigation
Źródło: dlapilota
comments powered by Disqus

Komentarze

nowe Taf-y są wystawiane na 24 godzn

:)